createdAt,value
2023-01-05T00:01:40.209Z,9.70
2023-01-05T00:04:07.542Z,9.70
2023-01-05T00:06:35.033Z,9.60
2023-01-05T00:09:01.875Z,9.70
2023-01-05T00:11:47.619Z,9.60
2023-01-05T00:14:34.347Z,9.60
2023-01-05T00:17:20.213Z,9.60
2023-01-05T00:20:05.867Z,9.60
2023-01-05T00:22:34.813Z,9.60
2023-01-05T00:25:11.138Z,9.60
2023-01-05T00:27:39.768Z,9.60
2023-01-05T00:30:07.381Z,9.60
2023-01-05T00:32:35.606Z,9.60
2023-01-05T00:35:02.618Z,9.60
2023-01-05T00:37:31.373Z,9.60
2023-01-05T00:39:58.294Z,9.60
2023-01-05T00:42:25.335Z,9.50
2023-01-05T00:44:52.402Z,9.50
2023-01-05T00:47:19.306Z,9.50
2023-01-05T00:49:48.104Z,9.50
2023-01-05T00:52:14.995Z,9.50
2023-01-05T00:54:41.879Z,9.50
2023-01-05T00:57:11.422Z,9.50
2023-01-05T00:59:39.903Z,9.50
2023-01-05T01:02:07.066Z,9.40
2023-01-05T01:04:34.418Z,9.40
2023-01-05T01:07:01.466Z,9.40
2023-01-05T01:09:28.337Z,9.40
2023-01-05T01:11:55.461Z,9.40
2023-01-05T01:14:22.383Z,9.40
2023-01-05T01:16:49.904Z,9.40
2023-01-05T01:19:18.997Z,9.40
2023-01-05T01:21:46.113Z,9.40
2023-01-05T01:24:16.981Z,9.40
2023-01-05T01:26:44.097Z,9.40
2023-01-05T01:29:11.056Z,9.30
2023-01-05T01:31:38.315Z,9.40
2023-01-05T01:34:05.594Z,9.40
2023-01-05T01:36:32.490Z,9.40
2023-01-05T01:39:00.419Z,9.40
2023-01-05T01:41:29.889Z,9.40
2023-01-05T01:43:58.540Z,9.40
2023-01-05T01:46:27.513Z,9.40
2023-01-05T01:48:57.481Z,9.40
2023-01-05T01:51:30.432Z,9.40
2023-01-05T01:54:02.598Z,9.40
2023-01-05T01:56:49.940Z,9.40
2023-01-05T01:59:17.537Z,9.40
2023-01-05T02:01:44.549Z,9.40
2023-01-05T02:04:11.963Z,9.40
2023-01-05T02:06:40.087Z,9.40
2023-01-05T02:09:07.118Z,9.40
2023-01-05T02:11:45.752Z,9.40
2023-01-05T02:14:15.528Z,9.40
2023-01-05T02:16:54.889Z,9.40
2023-01-05T02:19:29.043Z,9.40
2023-01-05T02:22:05.107Z,9.40
2023-01-05T02:24:55.387Z,9.40
2023-01-05T02:27:54.997Z,9.40
2023-01-05T02:30:41.918Z,9.30
2023-01-05T02:33:14.763Z,9.30
2023-01-05T02:35:41.877Z,9.30
2023-01-05T02:38:17.860Z,9.30
2023-01-05T02:40:48.005Z,9.30
2023-01-05T02:43:16.116Z,9.40
2023-01-05T02:45:44.634Z,9.40
2023-01-05T02:48:11.651Z,9.40
2023-01-05T02:50:41.548Z,9.40
2023-01-05T02:53:20.495Z,9.40
2023-01-05T02:55:51.601Z,9.40
2023-01-05T02:58:21.954Z,9.40
2023-01-05T03:00:52.882Z,9.40
2023-01-05T03:03:35.328Z,9.40
2023-01-05T03:06:05.632Z,9.40
2023-01-05T03:08:34.540Z,9.40
2023-01-05T03:11:24.956Z,9.40
2023-01-05T03:13:56.059Z,9.40
2023-01-05T03:16:27.803Z,9.40
2023-01-05T03:19:17.950Z,9.40
2023-01-05T03:22:03.713Z,9.40
2023-01-05T03:24:54.352Z,9.40
2023-01-05T03:27:40.167Z,9.40
2023-01-05T03:30:25.919Z,9.40
2023-01-05T03:33:15.456Z,9.40
2023-01-05T03:35:44.024Z,9.50
2023-01-05T03:38:18.244Z,9.50
2023-01-05T03:40:49.971Z,9.40
2023-01-05T03:43:18.632Z,9.50
2023-01-05T03:45:46.486Z,9.50
2023-01-05T03:48:21.233Z,9.50
2023-01-05T03:50:48.446Z,9.50
2023-01-05T03:53:17.126Z,9.50
2023-01-05T03:55:45.623Z,9.50
2023-01-05T03:58:13.394Z,9.50
2023-01-05T04:00:44.353Z,9.50
2023-01-05T04:03:13.590Z,9.50
2023-01-05T04:05:40.612Z,9.50
2023-01-05T04:08:07.910Z,9.50
2023-01-05T04:10:36.052Z,9.50
2023-01-05T04:13:02.971Z,9.50
2023-01-05T04:15:30.281Z,9.50
2023-01-05T04:17:57.974Z,9.50
2023-01-05T04:20:25.349Z,9.50
2023-01-05T04:22:53.125Z,9.50
2023-01-05T04:25:21.783Z,9.50
2023-01-05T04:27:49.070Z,9.50
2023-01-05T04:30:17.545Z,9.50
2023-01-05T04:32:44.464Z,9.50
2023-01-05T04:35:15.004Z,9.50
2023-01-05T04:37:43.066Z,9.50
2023-01-05T04:40:10.845Z,9.50
2023-01-05T04:42:49.458Z,9.50
2023-01-05T04:45:16.521Z,9.50
2023-01-05T04:47:44.193Z,9.50
2023-01-05T04:50:14.659Z,9.50
2023-01-05T04:52:43.503Z,9.50
2023-01-05T04:55:10.469Z,9.50
2023-01-05T04:57:38.859Z,9.50
2023-01-05T05:00:07.226Z,9.50
2023-01-05T05:02:34.975Z,9.50
2023-01-05T05:05:01.949Z,9.50
2023-01-05T05:07:29.538Z,9.50
2023-01-05T05:10:00.346Z,9.50
2023-01-05T05:12:27.541Z,9.50
2023-01-05T05:14:54.397Z,9.50
2023-01-05T05:17:21.375Z,9.50
2023-01-05T05:19:49.773Z,9.50
2023-01-05T05:22:19.917Z,9.50
2023-01-05T05:24:46.822Z,9.50
2023-01-05T05:27:13.857Z,9.50
2023-01-05T05:29:40.706Z,9.50
2023-01-05T05:32:07.588Z,9.60
2023-01-05T05:34:34.480Z,9.60
2023-01-05T05:37:01.379Z,9.60
2023-01-05T05:39:28.264Z,9.60
2023-01-05T05:41:55.128Z,9.50
2023-01-05T05:44:23.123Z,9.50
2023-01-05T05:46:50.019Z,9.50
2023-01-05T05:49:16.903Z,9.50
2023-01-05T05:51:43.865Z,9.50
2023-01-05T05:54:10.718Z,9.60
2023-01-05T05:56:37.623Z,9.60
2023-01-05T05:59:04.462Z,9.60
2023-01-05T06:01:31.593Z,9.50
2023-01-05T06:03:58.559Z,9.50
2023-01-05T06:06:25.547Z,9.50
2023-01-05T06:08:52.383Z,9.50
2023-01-05T06:11:19.252Z,9.50
2023-01-05T06:13:46.433Z,9.50
2023-01-05T06:16:13.333Z,9.50
2023-01-05T06:18:40.395Z,9.40
2023-01-05T06:21:07.658Z,9.40
2023-01-05T06:23:34.660Z,9.40
2023-01-05T06:26:04.531Z,9.40
2023-01-05T06:28:31.434Z,9.40
2023-01-05T06:30:58.216Z,9.40
2023-01-05T06:33:25.117Z,9.40
2023-01-05T06:35:52.001Z,9.40
2023-01-05T06:38:18.976Z,9.40
2023-01-05T06:40:48.959Z,9.40
2023-01-05T06:43:16.022Z,9.40
2023-01-05T06:45:43.006Z,9.40
2023-01-05T06:48:09.989Z,9.40
2023-01-05T06:50:36.888Z,9.30
2023-01-05T06:53:03.806Z,9.40
2023-01-05T06:55:30.613Z,9.40
2023-01-05T06:58:01.011Z,9.40
2023-01-05T07:00:28.615Z,9.30
2023-01-05T07:02:55.547Z,9.30
2023-01-05T07:05:24.498Z,9.30
2023-01-05T07:07:51.601Z,9.30
2023-01-05T07:10:18.470Z,9.30
2023-01-05T07:12:45.436Z,9.30
2023-01-05T07:15:12.369Z,9.30
2023-01-05T07:17:39.249Z,9.30
2023-01-05T07:20:07.263Z,9.30
2023-01-05T07:22:34.084Z,9.30
2023-01-05T07:25:01.233Z,9.30
2023-01-05T07:27:28.051Z,9.20
2023-01-05T07:29:54.974Z,9.20
2023-01-05T07:32:21.875Z,9.20
2023-01-05T07:34:55.334Z,9.20
2023-01-05T07:37:24.985Z,9.20
2023-01-05T07:39:52.473Z,9.20
2023-01-05T07:42:19.481Z,9.20
2023-01-05T07:44:48.415Z,9.20
2023-01-05T07:47:15.318Z,9.20
2023-01-05T07:49:42.320Z,9.10
2023-01-05T07:52:09.235Z,9.10
2023-01-05T07:54:36.237Z,9.10
2023-01-05T07:57:03.390Z,9.10
2023-01-05T07:59:30.437Z,9.10
2023-01-05T08:01:57.526Z,9.00
2023-01-05T08:04:26.349Z,9.00
2023-01-05T08:06:53.294Z,9.00
2023-01-05T08:09:39.204Z,9.00
2023-01-05T08:12:06.222Z,9.00
2023-01-05T08:14:33.193Z,9.00
2023-01-05T08:17:00.121Z,9.00
2023-01-05T08:19:27.218Z,9.00
2023-01-05T08:21:54.286Z,9.00
2023-01-05T08:24:21.154Z,9.00
2023-01-05T08:26:49.626Z,9.00
2023-01-05T08:29:16.687Z,9.00
2023-01-05T08:31:43.550Z,9.00
2023-01-05T08:34:11.096Z,9.00
2023-01-05T08:36:37.979Z,9.00
2023-01-05T08:39:04.832Z,9.00
2023-01-05T08:41:32.863Z,9.00
2023-01-05T08:44:00.821Z,9.00
2023-01-05T08:46:28.651Z,9.00
2023-01-05T08:48:56.919Z,9.00
2023-01-05T08:51:23.950Z,9.00
2023-01-05T08:53:50.951Z,9.00
2023-01-05T08:56:18.009Z,9.00
2023-01-05T08:58:44.947Z,9.00
2023-01-05T09:01:13.310Z,9.00
2023-01-05T09:03:40.257Z,9.00
2023-01-05T09:06:09.411Z,9.00
2023-01-05T09:08:36.333Z,9.00
2023-01-05T09:11:10.837Z,9.00
2023-01-05T09:13:39.334Z,9.00
2023-01-05T09:16:09.054Z,9.00
2023-01-05T09:18:36.574Z,9.00
2023-01-05T09:21:04.367Z,9.00
2023-01-05T09:23:31.242Z,9.00
2023-01-05T09:25:58.086Z,9.00
2023-01-05T09:28:25.005Z,9.00
2023-01-05T09:30:51.994Z,9.00
2023-01-05T09:33:18.958Z,9.00
2023-01-05T09:35:53.209Z,9.00
2023-01-05T09:38:20.079Z,9.00
2023-01-05T09:40:47.270Z,9.00
2023-01-05T09:43:18.726Z,9.00
2023-01-05T09:45:45.743Z,9.00
2023-01-05T09:48:14.312Z,9.00
2023-01-05T09:50:42.793Z,9.00
2023-01-05T09:53:10.188Z,9.00
2023-01-05T09:55:37.402Z,9.00
2023-01-05T09:58:20.024Z,9.00
2023-01-05T10:01:02.356Z,9.00
2023-01-05T10:04:02.527Z,9.00
2023-01-05T10:06:18.941Z,9.00
2023-01-05T10:08:48.324Z,8.90
2023-01-05T10:11:36.998Z,8.90
2023-01-05T10:14:09.981Z,8.90
2023-01-05T10:16:36.975Z,8.90
2023-01-05T10:19:04.225Z,8.90
2023-01-05T10:21:36.346Z,8.90
2023-01-05T10:24:11.640Z,8.90
2023-01-05T10:27:06.361Z,9.00
2023-01-05T10:29:45.610Z,8.90
2023-01-05T10:32:26.268Z,9.00
2023-01-05T10:35:00.378Z,9.00
2023-01-05T10:37:33.611Z,9.00
2023-01-05T10:40:19.245Z,9.00
2023-01-05T10:42:46.092Z,9.00
2023-01-05T10:45:17.380Z,9.10
2023-01-05T10:47:46.235Z,9.10
2023-01-05T10:50:25.271Z,9.10
2023-01-05T10:52:54.017Z,9.10
2023-01-05T10:55:21.849Z,9.10
2023-01-05T10:57:48.730Z,9.20
2023-01-05T11:00:17.602Z,9.20
2023-01-05T11:02:59.901Z,9.20
2023-01-05T11:05:32.910Z,9.30
2023-01-05T11:08:01.968Z,9.30
2023-01-05T11:10:30.766Z,9.40
2023-01-05T11:13:17.038Z,9.40
2023-01-05T11:15:46.665Z,9.40
2023-01-05T11:18:29.324Z,9.50
2023-01-05T11:21:05.571Z,9.50
2023-01-05T11:23:37.230Z,9.60
2023-01-05T11:26:16.325Z,9.60
2023-01-05T11:28:59.849Z,9.60
2023-01-05T11:31:28.434Z,9.60
2023-01-05T11:33:57.320Z,9.70
2023-01-05T11:36:24.668Z,9.70
2023-01-05T11:38:54.041Z,9.80
2023-01-05T11:41:23.080Z,9.80
2023-01-05T11:43:50.663Z,9.80
2023-01-05T11:46:17.867Z,9.80
2023-01-05T11:48:52.614Z,9.90
2023-01-05T11:51:36.399Z,9.90
2023-01-05T11:54:03.444Z,9.90
2023-01-05T11:56:30.271Z,9.90
2023-01-05T11:58:58.067Z,10.00
2023-01-05T12:01:25.563Z,10.00
2023-01-05T12:03:58.456Z,10.00
2023-01-05T12:06:34.033Z,10.00
2023-01-05T12:09:19.315Z,10.10
2023-01-05T12:11:46.330Z,10.10
2023-01-05T12:14:13.777Z,10.10
2023-01-05T12:16:43.711Z,10.10
2023-01-05T12:19:29.430Z,10.20
2023-01-05T12:22:14.850Z,10.10
2023-01-05T12:24:44.779Z,10.20
2023-01-05T12:27:19.926Z,10.20
2023-01-05T12:34:01.412Z,10.30
2023-01-05T12:36:01.734Z,10.30
2023-01-05T12:38:48.953Z,10.30
2023-01-05T12:41:22.576Z,10.40
2023-01-05T12:44:04.418Z,10.40
2023-01-05T12:46:31.335Z,10.40
2023-01-05T12:49:03.517Z,10.50
2023-01-05T12:51:40.045Z,10.50
2023-01-05T12:54:06.895Z,10.50
2023-01-05T12:56:36.413Z,10.50
2023-01-05T12:59:25.022Z,10.60
2023-01-05T13:02:07.233Z,10.60
2023-01-05T13:04:55.922Z,10.70
2023-01-05T13:07:30.398Z,10.70
2023-01-05T13:10:02.690Z,10.70
2023-01-05T13:12:31.553Z,10.70
2023-01-05T13:15:15.147Z,10.80
2023-01-05T13:17:44.571Z,10.80
2023-01-05T13:20:20.601Z,10.80
2023-01-05T13:22:48.405Z,10.80
2023-01-05T13:25:15.354Z,10.80
2023-01-05T13:27:43.353Z,10.80
2023-01-05T13:30:31.218Z,10.90
2023-01-05T13:33:04.348Z,10.80
2023-01-05T13:35:31.271Z,10.80
2023-01-05T13:37:58.075Z,10.80
2023-01-05T13:40:43.431Z,10.80
2023-01-05T13:43:30.525Z,10.80
2023-01-05T13:46:15.887Z,10.80
2023-01-05T13:49:03.181Z,10.90
2023-01-05T13:51:38.622Z,10.80
2023-01-05T13:54:13.231Z,10.90
2023-01-05T13:56:40.696Z,10.80
2023-01-05T13:59:34.530Z,10.90
2023-01-05T14:02:03.462Z,10.90
2023-01-05T14:04:33.025Z,10.80
2023-01-05T14:07:11.976Z,10.80
2023-01-05T14:09:42.907Z,10.80
2023-01-05T14:12:14.827Z,10.90
2023-01-05T14:15:00.408Z,10.80
2023-01-05T14:17:46.505Z,10.90
2023-01-05T14:20:32.139Z,10.80
2023-01-05T14:22:59.473Z,10.80
2023-01-05T14:25:38.387Z,10.80
2023-01-05T14:28:23.839Z,10.80
2023-01-05T14:30:53.149Z,10.80
2023-01-05T14:33:20.667Z,10.80
2023-01-05T14:35:47.713Z,10.80
2023-01-05T14:38:14.583Z,10.80
2023-01-05T14:40:43.840Z,10.80
2023-01-05T14:43:27.043Z,10.70
2023-01-05T14:46:14.829Z,10.70
2023-01-05T14:48:49.126Z,10.70
2023-01-05T14:51:16.055Z,10.70
2023-01-05T14:53:43.798Z,10.70
2023-01-05T14:56:15.710Z,10.60
2023-01-05T14:58:42.686Z,10.60
2023-01-05T15:01:18.957Z,10.60
2023-01-05T15:04:06.128Z,10.60
2023-01-05T15:06:36.745Z,10.60
2023-01-05T15:09:03.732Z,10.50
2023-01-05T15:11:39.586Z,10.60
2023-01-05T15:14:35.008Z,10.60
2023-01-05T15:17:02.186Z,10.60
2023-01-05T15:19:38.024Z,10.60
2023-01-05T15:22:36.523Z,10.50
2023-01-05T15:25:06.975Z,10.50
2023-01-05T15:27:48.659Z,10.50
2023-01-05T15:30:15.573Z,10.50
2023-01-05T15:32:46.008Z,10.50
2023-01-05T15:35:21.355Z,10.50
2023-01-05T15:37:48.851Z,10.50
2023-01-05T15:40:16.030Z,10.50
2023-01-05T15:42:44.320Z,10.50
2023-01-05T15:45:24.405Z,10.50
2023-01-05T15:47:52.135Z,10.50
2023-01-05T15:50:23.983Z,10.50
2023-01-05T15:52:55.464Z,10.50
2023-01-05T15:55:22.795Z,10.50
2023-01-05T15:57:52.702Z,10.50
2023-01-05T16:00:21.896Z,10.50
2023-01-05T16:02:48.723Z,10.50
2023-01-05T16:05:17.147Z,10.50
2023-01-05T16:07:52.556Z,10.50
2023-01-05T16:10:21.407Z,10.50
2023-01-05T16:12:49.962Z,10.50
2023-01-05T16:15:20.486Z,10.50
2023-01-05T16:17:48.135Z,10.40
2023-01-05T16:20:18.320Z,10.50
2023-01-05T16:22:45.191Z,10.50
2023-01-05T16:25:12.279Z,10.40
2023-01-05T16:27:40.401Z,10.40
2023-01-05T16:30:27.220Z,10.50
2023-01-05T16:33:03.364Z,10.50
2023-01-05T16:35:43.660Z,10.40
2023-01-05T16:38:10.503Z,10.50
2023-01-05T16:40:40.365Z,10.50
2023-01-05T16:43:25.975Z,10.50
2023-01-05T16:45:58.039Z,10.50
2023-01-05T16:48:34.063Z,10.50
2023-01-05T16:51:12.439Z,10.50
2023-01-05T16:53:46.804Z,10.50
2023-01-05T16:56:19.947Z,10.50
2023-01-05T16:58:47.073Z,10.50
2023-01-05T17:01:13.921Z,10.50
2023-01-05T17:03:41.482Z,10.50
2023-01-05T17:06:18.380Z,10.50
2023-01-05T17:08:45.310Z,10.50
2023-01-05T17:11:12.789Z,10.50
2023-01-05T17:13:58.023Z,10.50
2023-01-05T17:16:24.963Z,10.50
2023-01-05T17:18:52.116Z,10.50
2023-01-05T17:21:21.971Z,10.50
2023-01-05T17:23:50.523Z,10.50
2023-01-05T17:26:26.862Z,10.50
2023-01-05T17:28:55.036Z,10.50
2023-01-05T17:31:21.880Z,10.50
2023-01-05T17:33:48.787Z,10.50
2023-01-05T17:36:16.596Z,10.50
2023-01-05T17:38:43.844Z,10.50
2023-01-05T17:41:14.254Z,10.50
2023-01-05T17:46:18.050Z,10.50
2023-01-05T17:48:44.972Z,10.50
2023-01-05T17:51:12.183Z,10.50
2023-01-05T17:53:39.124Z,10.50
2023-01-05T17:56:06.063Z,10.50
2023-01-05T17:58:33.142Z,10.50
2023-01-05T18:01:00.007Z,10.50
2023-01-05T18:03:26.881Z,10.50
2023-01-05T18:05:53.769Z,10.50
2023-01-05T18:08:21.030Z,10.50
2023-01-05T18:10:48.130Z,10.50
2023-01-05T18:13:16.790Z,10.50
2023-01-05T18:15:47.514Z,10.50
2023-01-05T18:18:14.426Z,10.50
2023-01-05T18:20:41.926Z,10.50
2023-01-05T18:23:09.881Z,10.50
2023-01-05T18:25:38.271Z,10.50
2023-01-05T18:28:05.803Z,10.50
2023-01-05T18:30:35.583Z,10.50
2023-01-05T18:33:02.866Z,10.50
2023-01-05T18:35:29.793Z,10.50
2023-01-05T18:37:59.564Z,10.50
2023-01-05T18:40:27.127Z,10.50
2023-01-05T18:42:54.708Z,10.50
2023-01-05T18:45:32.120Z,10.50
2023-01-05T18:48:04.962Z,10.50
2023-01-05T18:50:31.776Z,10.50
2023-01-05T18:52:58.625Z,10.50
2023-01-05T18:55:25.472Z,10.50
2023-01-05T18:57:52.368Z,10.50
2023-01-05T19:00:19.352Z,10.50
2023-01-05T19:02:46.192Z,10.50
2023-01-05T19:05:13.027Z,10.50
2023-01-05T19:07:39.984Z,10.50
2023-01-05T19:10:07.071Z,10.50
2023-01-05T19:12:33.947Z,10.50
2023-01-05T19:15:00.866Z,10.50
2023-01-05T19:17:27.793Z,10.50
2023-01-05T19:19:55.266Z,10.50
2023-01-05T19:22:22.104Z,10.50
2023-01-05T19:24:48.974Z,10.50
2023-01-05T19:27:15.815Z,10.60
2023-01-05T19:29:42.684Z,10.60
2023-01-05T19:32:09.515Z,10.60
2023-01-05T19:34:36.450Z,10.60
2023-01-05T19:37:05.607Z,10.60
2023-01-05T19:39:32.472Z,10.60
2023-01-05T19:41:59.365Z,10.60
2023-01-05T19:44:26.833Z,10.60
2023-01-05T19:46:54.225Z,10.60
2023-01-05T19:49:22.325Z,10.60
2023-01-05T19:51:49.585Z,10.60
2023-01-05T19:54:16.532Z,10.60
2023-01-05T19:56:44.113Z,10.60
2023-01-05T19:59:15.584Z,10.60
2023-01-05T20:01:42.594Z,10.60
2023-01-05T20:04:13.055Z,10.60
2023-01-05T20:06:41.841Z,10.60
2023-01-05T20:09:10.588Z,10.60
2023-01-05T20:11:45.101Z,10.60
2023-01-05T20:14:12.025Z,10.60
2023-01-05T20:16:39.312Z,10.60
2023-01-05T20:19:06.365Z,10.60
2023-01-05T20:21:33.506Z,10.60
2023-01-05T20:34:17.731Z,10.60
2023-01-05T20:36:44.905Z,10.60
2023-01-05T20:39:12.877Z,10.50
2023-01-05T20:41:41.115Z,10.50
2023-01-05T20:44:10.119Z,10.50
2023-01-05T20:46:38.578Z,10.50
2023-01-05T20:49:05.673Z,10.50
2023-01-05T20:51:35.296Z,10.50
2023-01-05T20:54:02.667Z,10.50
2023-01-05T20:56:38.609Z,10.50
2023-01-05T20:59:08.299Z,10.50
2023-01-05T21:01:36.248Z,10.50
2023-01-05T21:04:04.316Z,10.50
2023-01-05T21:06:31.553Z,10.50
2023-01-05T21:08:58.651Z,10.50
2023-01-05T21:11:29.480Z,10.50
2023-01-05T21:13:57.513Z,10.50
2023-01-05T21:16:26.123Z,10.50
2023-01-05T21:18:54.917Z,10.50
2023-01-05T21:21:22.609Z,10.50
2023-01-05T21:23:50.306Z,10.50
2023-01-05T21:26:17.417Z,10.50
2023-01-05T21:28:45.063Z,10.50
2023-01-05T21:31:13.514Z,10.50
2023-01-05T21:33:40.569Z,10.50
2023-01-05T21:36:10.017Z,10.50
2023-01-05T21:39:01.938Z,10.50
2023-01-05T21:41:42.764Z,10.50
2023-01-05T21:44:11.096Z,10.50
2023-01-05T21:46:38.767Z,10.50
2023-01-05T21:49:07.138Z,10.40
2023-01-05T21:51:52.628Z,10.50
2023-01-05T21:54:38.141Z,10.40
2023-01-05T21:57:05.251Z,10.40
2023-01-05T21:59:32.948Z,10.40
2023-01-05T22:02:00.056Z,10.50
2023-01-05T22:04:27.028Z,10.50
2023-01-05T22:06:53.941Z,10.50
2023-01-05T22:09:20.823Z,10.50
2023-01-05T22:11:47.717Z,10.50
2023-01-05T22:14:14.867Z,10.50
2023-01-05T22:16:41.836Z,10.50
2023-01-05T22:19:08.941Z,10.50
2023-01-05T22:21:35.837Z,10.50
2023-01-05T22:24:02.748Z,10.50
2023-01-05T22:26:29.705Z,10.50
2023-01-05T22:28:56.566Z,10.50
2023-01-05T22:31:24.895Z,10.50
2023-01-05T22:33:53.012Z,10.50
2023-01-05T22:36:20.603Z,10.50
2023-01-05T22:38:48.516Z,10.50
2023-01-05T22:41:16.546Z,10.50
2023-01-05T22:43:43.796Z,10.50
2023-01-05T22:46:14.985Z,10.50
2023-01-05T22:48:43.071Z,10.50
2023-01-05T22:51:11.571Z,10.50
2023-01-05T22:53:38.685Z,10.40
2023-01-05T22:56:06.293Z,10.30
2023-01-05T22:58:33.251Z,10.20
2023-01-05T23:01:10.666Z,10.20
2023-01-05T23:03:37.736Z,10.10
2023-01-05T23:06:04.836Z,10.00
2023-01-05T23:08:33.343Z,9.90
2023-01-05T23:11:01.529Z,9.70
2023-01-05T23:13:28.508Z,9.60
2023-01-05T23:15:55.804Z,9.50
2023-01-05T23:18:22.888Z,9.40
2023-01-05T23:20:54.010Z,9.30
2023-01-05T23:23:21.956Z,9.20
2023-01-05T23:25:49.487Z,9.10
2023-01-05T23:28:18.138Z,9.10
2023-01-05T23:30:49.081Z,9.00
2023-01-05T23:33:17.044Z,8.90
2023-01-05T23:35:44.062Z,8.90
2023-01-05T23:38:11.194Z,8.80
2023-01-05T23:40:52.316Z,8.80
2023-01-05T23:43:20.626Z,8.70
2023-01-05T23:45:48.061Z,8.70
2023-01-05T23:48:15.289Z,8.60
2023-01-05T23:50:43.544Z,8.50
2023-01-05T23:53:11.229Z,8.50
2023-01-05T23:55:38.202Z,8.50
2023-01-05T23:58:05.653Z,8.50
